sensor_id;sensor_type;location;lat;lon;timestamp;P1;durP1;ratioP1;P2;durP2;ratioP2
21458;SDS011;10891;49.350;19.386;2023-03-25T00:02:13;18.80;;;11.88;;
21458;SDS011;10891;49.350;19.386;2023-03-25T00:04:40;20.65;;;11.50;;
21458;SDS011;10891;49.350;19.386;2023-03-25T00:07:07;16.35;;;10.35;;
21458;SDS011;10891;49.350;19.386;2023-03-25T00:09:34;11.43;;;6.82;;
21458;SDS011;10891;49.350;19.386;2023-03-25T00:12:02;8.90;;;7.03;;
21458;SDS011;10891;49.350;19.386;2023-03-25T00:14:30;10.80;;;7.32;;
21458;SDS011;10891;49.350;19.386;2023-03-25T00:16:58;10.57;;;7.40;;
21458;SDS011;10891;49.350;19.386;2023-03-25T00:19:25;12.65;;;9.15;;
21458;SDS011;10891;49.350;19.386;2023-03-25T00:21:52;12.30;;;8.82;;
21458;SDS011;10891;49.350;19.386;2023-03-25T00:24:19;16.02;;;10.02;;
21458;SDS011;10891;49.350;19.386;2023-03-25T00:26:46;24.83;;;11.98;;
21458;SDS011;10891;49.350;19.386;2023-03-25T00:29:13;20.23;;;11.52;;
21458;SDS011;10891;49.350;19.386;2023-03-25T00:31:43;22.58;;;12.32;;
21458;SDS011;10891;49.350;19.386;2023-03-25T00:34:10;19.02;;;11.02;;
21458;SDS011;10891;49.350;19.386;2023-03-25T00:36:38;13.20;;;8.27;;
21458;SDS011;10891;49.350;19.386;2023-03-25T00:39:05;13.68;;;8.32;;
21458;SDS011;10891;49.350;19.386;2023-03-25T00:41:33;14.93;;;8.68;;
21458;SDS011;10891;49.350;19.386;2023-03-25T00:44:01;13.45;;;8.73;;
21458;SDS011;10891;49.350;19.386;2023-03-25T00:46:29;12.55;;;8.45;;
21458;SDS011;10891;49.350;19.386;2023-03-25T00:48:59;14.32;;;9.65;;
21458;SDS011;10891;49.350;19.386;2023-03-25T00:51:26;17.98;;;10.68;;
21458;SDS011;10891;49.350;19.386;2023-03-25T00:53:55;20.38;;;11.23;;
21458;SDS011;10891;49.350;19.386;2023-03-25T00:56:25;21.42;;;11.80;;
21458;SDS011;10891;49.350;19.386;2023-03-25T00:58:52;18.15;;;11.25;;
21458;SDS011;10891;49.350;19.386;2023-03-25T01:01:20;16.10;;;10.52;;
21458;SDS011;10891;49.350;19.386;2023-03-25T01:03:51;19.45;;;12.27;;
21458;SDS011;10891;49.350;19.386;2023-03-25T01:06:23;14.45;;;9.90;;
21458;SDS011;10891;49.350;19.386;2023-03-25T01:08:53;18.98;;;10.70;;
21458;SDS011;10891;49.350;19.386;2023-03-25T01:11:22;15.07;;;10.38;;
21458;SDS011;10891;49.350;19.386;2023-03-25T01:13:50;22.88;;;12.57;;
21458;SDS011;10891;49.350;19.386;2023-03-25T01:16:17;18.23;;;12.57;;
21458;SDS011;10891;49.350;19.386;2023-03-25T01:18:44;18.80;;;13.05;;
21458;SDS011;10891;49.350;19.386;2023-03-25T01:21:11;19.02;;;12.73;;
21458;SDS011;10891;49.350;19.386;2023-03-25T01:23:39;17.10;;;11.95;;
21458;SDS011;10891;49.350;19.386;2023-03-25T01:26:06;21.02;;;12.88;;
21458;SDS011;10891;49.350;19.386;2023-03-25T01:28:33;56.97;;;23.40;;
21458;SDS011;10891;49.350;19.386;2023-03-25T01:31:00;21.33;;;13.10;;
21458;SDS011;10891;49.350;19.386;2023-03-25T01:33:28;20.15;;;12.38;;
21458;SDS011;10891;49.350;19.386;2023-03-25T01:35:55;17.00;;;11.85;;
21458;SDS011;10891;49.350;19.386;2023-03-25T01:38:21;22.80;;;14.43;;
21458;SDS011;10891;49.350;19.386;2023-03-25T01:40:50;28.23;;;14.57;;
21458;SDS011;10891;49.350;19.386;2023-03-25T01:43:18;37.67;;;16.73;;
21458;SDS011;10891;49.350;19.386;2023-03-25T01:45:45;36.90;;;16.90;;
21458;SDS011;10891;49.350;19.386;2023-03-25T01:48:13;21.80;;;11.48;;
21458;SDS011;10891;49.350;19.386;2023-03-25T01:50:46;14.57;;;9.05;;
21458;SDS011;10891;49.350;19.386;2023-03-25T01:53:17;9.60;;;6.60;;
21458;SDS011;10891;49.350;19.386;2023-03-25T01:55:44;10.18;;;6.93;;
21458;SDS011;10891;49.350;19.386;2023-03-25T01:58:14;9.90;;;5.80;;
21458;SDS011;10891;49.350;19.386;2023-03-25T02:00:43;9.07;;;5.18;;
21458;SDS011;10891;49.350;19.386;2023-03-25T02:03:11;11.60;;;5.78;;
21458;SDS011;10891;49.350;19.386;2023-03-25T02:05:41;10.05;;;7.40;;
21458;SDS011;10891;49.350;19.386;2023-03-25T02:08:13;12.07;;;8.77;;
21458;SDS011;10891;49.350;19.386;2023-03-25T02:10:43;11.63;;;7.53;;
21458;SDS011;10891;49.350;19.386;2023-03-25T02:13:11;10.73;;;6.90;;
21458;SDS011;10891;49.350;19.386;2023-03-25T02:15:43;8.30;;;5.82;;
21458;SDS011;10891;49.350;19.386;2023-03-25T02:18:23;10.23;;;6.90;;
21458;SDS011;10891;49.350;19.386;2023-03-25T02:21:02;15.18;;;9.15;;
21458;SDS011;10891;49.350;19.386;2023-03-25T02:23:55;17.65;;;9.15;;
21458;SDS011;10891;49.350;19.386;2023-03-25T02:26:54;15.23;;;9.05;;
21458;SDS011;10891;49.350;19.386;2023-03-25T02:29:43;10.25;;;7.53;;
21458;SDS011;10891;49.350;19.386;2023-03-25T02:32:26;9.02;;;7.13;;
21458;SDS011;10891;49.350;19.386;2023-03-25T02:35:11;13.05;;;7.95;;
21458;SDS011;10891;49.350;19.386;2023-03-25T02:38:03;12.18;;;7.75;;
21458;SDS011;10891;49.350;19.386;2023-03-25T02:40:37;11.35;;;7.72;;
21458;SDS011;10891;49.350;19.386;2023-03-25T02:43:11;11.38;;;8.43;;
21458;SDS011;10891;49.350;19.386;2023-03-25T02:45:43;13.63;;;8.70;;
21458;SDS011;10891;49.350;19.386;2023-03-25T02:48:13;13.98;;;9.18;;
21458;SDS011;10891;49.350;19.386;2023-03-25T02:50:45;13.20;;;9.55;;
21458;SDS011;10891;49.350;19.386;2023-03-25T02:53:18;16.00;;;10.25;;
21458;SDS011;10891;49.350;19.386;2023-03-25T02:55:51;14.48;;;9.38;;
21458;SDS011;10891;49.350;19.386;2023-03-25T02:58:21;23.55;;;17.20;;
21458;SDS011;10891;49.350;19.386;2023-03-25T03:00:50;15.55;;;11.18;;
21458;SDS011;10891;49.350;19.386;2023-03-25T03:03:23;15.73;;;10.70;;
21458;SDS011;10891;49.350;19.386;2023-03-25T03:05:51;12.93;;;9.93;;
21458;SDS011;10891;49.350;19.386;2023-03-25T03:08:25;15.77;;;10.27;;
21458;SDS011;10891;49.350;19.386;2023-03-25T03:11:10;14.43;;;10.35;;
21458;SDS011;10891;49.350;19.386;2023-03-25T03:13:44;13.73;;;10.02;;
21458;SDS011;10891;49.350;19.386;2023-03-25T03:16:24;21.65;;;12.93;;
21458;SDS011;10891;49.350;19.386;2023-03-25T03:19:00;29.27;;;15.25;;
21458;SDS011;10891;49.350;19.386;2023-03-25T03:21:35;18.73;;;10.93;;
21458;SDS011;10891;49.350;19.386;2023-03-25T03:24:09;17.30;;;10.38;;
21458;SDS011;10891;49.350;19.386;2023-03-25T03:26:40;17.70;;;10.23;;
21458;SDS011;10891;49.350;19.386;2023-03-25T03:29:12;13.18;;;8.43;;
21458;SDS011;10891;49.350;19.386;2023-03-25T03:31:43;15.68;;;8.10;;
21458;SDS011;10891;49.350;19.386;2023-03-25T03:34:16;13.70;;;9.13;;
21458;SDS011;10891;49.350;19.386;2023-03-25T03:36:49;11.43;;;8.77;;
21458;SDS011;10891;49.350;19.386;2023-03-25T03:39:21;12.25;;;7.90;;
21458;SDS011;10891;49.350;19.386;2023-03-25T03:41:50;17.98;;;9.88;;
21458;SDS011;10891;49.350;19.386;2023-03-25T03:44:21;15.52;;;8.05;;
21458;SDS011;10891;49.350;19.386;2023-03-25T03:46:54;21.15;;;10.02;;
21458;SDS011;10891;49.350;19.386;2023-03-25T03:49:26;5.13;;;3.53;;
21458;SDS011;10891;49.350;19.386;2023-03-25T03:51:55;10.95;;;5.50;;
21458;SDS011;10891;49.350;19.386;2023-03-25T03:54:28;7.13;;;5.50;;
21458;SDS011;10891;49.350;19.386;2023-03-25T03:56:59;10.30;;;5.55;;
21458;SDS011;10891;49.350;19.386;2023-03-25T03:59:29;8.10;;;5.95;;
21458;SDS011;10891;49.350;19.386;2023-03-25T04:02:03;9.52;;;6.57;;
21458;SDS011;10891;49.350;19.386;2023-03-25T04:04:34;15.00;;;7.18;;
21458;SDS011;10891;49.350;19.386;2023-03-25T04:07:03;13.00;;;7.75;;
21458;SDS011;10891;49.350;19.386;2023-03-25T04:09:37;10.93;;;7.28;;
21458;SDS011;10891;49.350;19.386;2023-03-25T04:12:12;10.90;;;7.80;;
21458;SDS011;10891;49.350;19.386;2023-03-25T04:14:41;13.00;;;6.75;;
21458;SDS011;10891;49.350;19.386;2023-03-25T04:17:09;7.72;;;5.45;;
21458;SDS011;10891;49.350;19.386;2023-03-25T04:19:36;10.77;;;6.03;;
21458;SDS011;10891;49.350;19.386;2023-03-25T04:22:04;11.30;;;6.22;;
21458;SDS011;10891;49.350;19.386;2023-03-25T04:24:31;11.52;;;6.15;;
21458;SDS011;10891;49.350;19.386;2023-03-25T04:27:03;9.32;;;6.88;;
21458;SDS011;10891;49.350;19.386;2023-03-25T04:29:29;8.90;;;6.45;;
21458;SDS011;10891;49.350;19.386;2023-03-25T04:31:57;13.85;;;7.93;;
21458;SDS011;10891;49.350;19.386;2023-03-25T04:34:25;16.70;;;8.13;;
21458;SDS011;10891;49.350;19.386;2023-03-25T04:36:52;27.40;;;12.05;;
21458;SDS011;10891;49.350;19.386;2023-03-25T04:39:20;17.38;;;10.00;;
21458;SDS011;10891;49.350;19.386;2023-03-25T04:41:47;15.23;;;8.75;;
21458;SDS011;10891;49.350;19.386;2023-03-25T04:44:16;21.58;;;10.13;;
21458;SDS011;10891;49.350;19.386;2023-03-25T04:46:44;8.25;;;5.10;;
21458;SDS011;10891;49.350;19.386;2023-03-25T04:49:15;6.25;;;3.72;;
21458;SDS011;10891;49.350;19.386;2023-03-25T04:51:45;7.38;;;4.60;;
21458;SDS011;10891;49.350;19.386;2023-03-25T04:54:13;5.95;;;4.30;;
21458;SDS011;10891;49.350;19.386;2023-03-25T04:56:40;10.18;;;4.80;;
21458;SDS011;10891;49.350;19.386;2023-03-25T04:59:07;6.03;;;3.20;;
21458;SDS011;10891;49.350;19.386;2023-03-25T05:01:36;5.35;;;3.10;;
21458;SDS011;10891;49.350;19.386;2023-03-25T05:04:06;5.85;;;3.67;;
21458;SDS011;10891;49.350;19.386;2023-03-25T05:06:37;8.80;;;4.50;;
21458;SDS011;10891;49.350;19.386;2023-03-25T05:09:07;5.53;;;3.65;;
21458;SDS011;10891;49.350;19.386;2023-03-25T05:11:36;14.23;;;6.10;;
21458;SDS011;10891;49.350;19.386;2023-03-25T05:14:05;11.00;;;5.47;;
21458;SDS011;10891;49.350;19.386;2023-03-25T05:16:33;6.60;;;3.72;;
21458;SDS011;10891;49.350;19.386;2023-03-25T05:19:02;11.60;;;5.05;;
21458;SDS011;10891;49.350;19.386;2023-03-25T05:21:30;7.43;;;3.72;;
21458;SDS011;10891;49.350;19.386;2023-03-25T05:24:00;5.93;;;3.88;;
21458;SDS011;10891;49.350;19.386;2023-03-25T05:26:26;5.43;;;3.05;;
21458;SDS011;10891;49.350;19.386;2023-03-25T05:28:58;5.15;;;3.30;;
21458;SDS011;10891;49.350;19.386;2023-03-25T05:31:25;6.65;;;3.33;;
21458;SDS011;10891;49.350;19.386;2023-03-25T05:33:54;9.18;;;3.78;;
21458;SDS011;10891;49.350;19.386;2023-03-25T05:36:22;5.15;;;3.35;;
21458;SDS011;10891;49.350;19.386;2023-03-25T05:38:49;6.97;;;4.18;;
21458;SDS011;10891;49.350;19.386;2023-03-25T05:41:18;7.72;;;4.07;;
21458;SDS011;10891;49.350;19.386;2023-03-25T05:43:47;5.28;;;3.75;;
21458;SDS011;10891;49.350;19.386;2023-03-25T05:46:15;6.88;;;3.40;;
21458;SDS011;10891;49.350;19.386;2023-03-25T05:48:43;5.45;;;3.38;;
21458;SDS011;10891;49.350;19.386;2023-03-25T05:51:13;6.63;;;3.80;;
21458;SDS011;10891;49.350;19.386;2023-03-25T05:53:41;6.70;;;3.45;;
21458;SDS011;10891;49.350;19.386;2023-03-25T05:56:08;6.30;;;3.50;;
21458;SDS011;10891;49.350;19.386;2023-03-25T05:58:35;10.60;;;5.60;;
21458;SDS011;10891;49.350;19.386;2023-03-25T06:01:03;8.75;;;5.93;;
21458;SDS011;10891;49.350;19.386;2023-03-25T06:03:30;6.05;;;3.60;;
21458;SDS011;10891;49.350;19.386;2023-03-25T06:06:00;5.43;;;3.72;;
21458;SDS011;10891;49.350;19.386;2023-03-25T06:08:30;7.88;;;4.63;;
21458;SDS011;10891;49.350;19.386;2023-03-25T06:10:59;5.47;;;3.35;;
21458;SDS011;10891;49.350;19.386;2023-03-25T06:13:26;8.55;;;4.55;;
21458;SDS011;10891;49.350;19.386;2023-03-25T06:15:53;10.30;;;5.13;;
21458;SDS011;10891;49.350;19.386;2023-03-25T06:18:22;7.65;;;5.45;;
21458;SDS011;10891;49.350;19.386;2023-03-25T06:20:50;7.53;;;3.70;;
21458;SDS011;10891;49.350;19.386;2023-03-25T06:23:18;9.60;;;4.28;;
21458;SDS011;10891;49.350;19.386;2023-03-25T06:25:48;8.18;;;5.13;;
21458;SDS011;10891;49.350;19.386;2023-03-25T06:28:15;7.63;;;4.80;;
21458;SDS011;10891;49.350;19.386;2023-03-25T06:30:43;6.10;;;4.43;;
21458;SDS011;10891;49.350;19.386;2023-03-25T06:33:10;9.15;;;4.35;;
21458;SDS011;10891;49.350;19.386;2023-03-25T06:35:38;7.10;;;4.35;;
21458;SDS011;10891;49.350;19.386;2023-03-25T06:38:05;20.00;;;7.07;;
21458;SDS011;10891;49.350;19.386;2023-03-25T06:40:34;10.18;;;4.90;;
21458;SDS011;10891;49.350;19.386;2023-03-25T06:43:03;9.65;;;5.32;;
21458;SDS011;10891;49.350;19.386;2023-03-25T06:45:30;10.95;;;6.03;;
21458;SDS011;10891;49.350;19.386;2023-03-25T06:47:58;14.48;;;7.55;;
21458;SDS011;10891;49.350;19.386;2023-03-25T06:50:25;8.57;;;5.35;;
21458;SDS011;10891;49.350;19.386;2023-03-25T06:52:52;8.68;;;5.13;;
21458;SDS011;10891;49.350;19.386;2023-03-25T06:55:19;11.18;;;6.78;;
21458;SDS011;10891;49.350;19.386;2023-03-25T06:57:46;10.38;;;6.05;;
21458;SDS011;10891;49.350;19.386;2023-03-25T07:00:15;7.50;;;4.43;;
21458;SDS011;10891;49.350;19.386;2023-03-25T07:02:44;8.68;;;4.50;;
21458;SDS011;10891;49.350;19.386;2023-03-25T07:05:11;7.90;;;4.38;;
21458;SDS011;10891;49.350;19.386;2023-03-25T07:07:38;5.38;;;3.47;;
21458;SDS011;10891;49.350;19.386;2023-03-25T07:10:05;7.22;;;4.10;;
21458;SDS011;10891;49.350;19.386;2023-03-25T07:12:33;6.32;;;3.65;;
21458;SDS011;10891;49.350;19.386;2023-03-25T07:15:00;10.82;;;3.10;;
21458;SDS011;10891;49.350;19.386;2023-03-25T07:17:29;23.25;;;9.13;;
21458;SDS011;10891;49.350;19.386;2023-03-25T07:19:56;13.55;;;6.03;;
21458;SDS011;10891;49.350;19.386;2023-03-25T07:22:23;4.43;;;3.08;;
21458;SDS011;10891;49.350;19.386;2023-03-25T07:24:50;6.40;;;2.33;;
21458;SDS011;10891;49.350;19.386;2023-03-25T07:27:18;5.03;;;2.83;;
21458;SDS011;10891;49.350;19.386;2023-03-25T07:29:45;7.20;;;3.03;;
21458;SDS011;10891;49.350;19.386;2023-03-25T07:32:11;5.72;;;3.03;;
21458;SDS011;10891;49.350;19.386;2023-03-25T07:34:40;5.40;;;3.10;;
21458;SDS011;10891;49.350;19.386;2023-03-25T07:37:07;48.53;;;21.38;;
21458;SDS011;10891;49.350;19.386;2023-03-25T07:39:34;6.47;;;3.25;;
21458;SDS011;10891;49.350;19.386;2023-03-25T07:42:02;7.75;;;3.63;;
21458;SDS011;10891;49.350;19.386;2023-03-25T07:44:31;13.80;;;8.50;;
21458;SDS011;10891;49.350;19.386;2023-03-25T07:46:58;4.78;;;2.92;;
21458;SDS011;10891;49.350;19.386;2023-03-25T07:49:25;3.85;;;2.30;;
21458;SDS011;10891;49.350;19.386;2023-03-25T07:51:53;5.20;;;2.47;;
21458;SDS011;10891;49.350;19.386;2023-03-25T07:54:20;5.00;;;2.70;;
21458;SDS011;10891;49.350;19.386;2023-03-25T07:56:48;8.40;;;5.07;;
21458;SDS011;10891;49.350;19.386;2023-03-25T07:59:16;4.63;;;2.45;;
21458;SDS011;10891;49.350;19.386;2023-03-25T08:01:44;3.95;;;2.20;;
21458;SDS011;10891;49.350;19.386;2023-03-25T08:04:11;9.45;;;4.95;;
21458;SDS011;10891;49.350;19.386;2023-03-25T08:06:39;7.38;;;3.00;;
21458;SDS011;10891;49.350;19.386;2023-03-25T08:09:08;6.13;;;2.70;;
21458;SDS011;10891;49.350;19.386;2023-03-25T08:11:36;5.70;;;2.70;;
21458;SDS011;10891;49.350;19.386;2023-03-25T08:14:05;24.38;;;11.32;;
21458;SDS011;10891;49.350;19.386;2023-03-25T08:16:33;12.52;;;5.70;;
21458;SDS011;10891;49.350;19.386;2023-03-25T08:19:03;5.72;;;2.40;;
21458;SDS011;10891;49.350;19.386;2023-03-25T08:21:30;7.93;;;2.75;;
21458;SDS011;10891;49.350;19.386;2023-03-25T08:23:57;6.50;;;2.45;;
21458;SDS011;10891;49.350;19.386;2023-03-25T08:26:28;4.97;;;2.70;;
21458;SDS011;10891;49.350;19.386;2023-03-25T08:28:58;4.55;;;2.25;;
21458;SDS011;10891;49.350;19.386;2023-03-25T08:31:27;6.22;;;2.75;;
21458;SDS011;10891;49.350;19.386;2023-03-25T08:34:03;35.20;;;12.23;;
21458;SDS011;10891;49.350;19.386;2023-03-25T08:36:34;7.32;;;2.50;;
21458;SDS011;10891;49.350;19.386;2023-03-25T08:39:04;8.18;;;2.55;;
21458;SDS011;10891;49.350;19.386;2023-03-25T08:41:37;7.68;;;3.53;;
21458;SDS011;10891;49.350;19.386;2023-03-25T08:44:05;6.38;;;3.10;;
21458;SDS011;10891;49.350;19.386;2023-03-25T08:46:34;6.88;;;3.10;;
21458;SDS011;10891;49.350;19.386;2023-03-25T08:49:01;6.15;;;2.53;;
21458;SDS011;10891;49.350;19.386;2023-03-25T08:51:28;4.82;;;2.33;;
21458;SDS011;10891;49.350;19.386;2023-03-25T08:53:59;5.60;;;2.17;;
21458;SDS011;10891;49.350;19.386;2023-03-25T08:59:50;7.13;;;4.28;;
21458;SDS011;10891;49.350;19.386;2023-03-25T09:02:17;13.77;;;6.78;;
21458;SDS011;10891;49.350;19.386;2023-03-25T09:04:49;7.75;;;3.25;;
21458;SDS011;10891;49.350;19.386;2023-03-25T09:07:16;6.88;;;1.73;;
21458;SDS011;10891;49.350;19.386;2023-03-25T09:09:44;4.20;;;2.13;;
21458;SDS011;10891;49.350;19.386;2023-03-25T09:12:11;4.60;;;1.90;;
21458;SDS011;10891;49.350;19.386;2023-03-25T09:14:38;4.22;;;2.00;;
21458;SDS011;10891;49.350;19.386;2023-03-25T09:17:06;6.00;;;2.92;;
21458;SDS011;10891;49.350;19.386;2023-03-25T09:19:34;7.38;;;2.50;;
21458;SDS011;10891;49.350;19.386;2023-03-25T09:22:02;10.20;;;5.55;;
21458;SDS011;10891;49.350;19.386;2023-03-25T09:24:29;4.55;;;2.38;;
21458;SDS011;10891;49.350;19.386;2023-03-25T09:26:58;6.35;;;2.30;;
21458;SDS011;10891;49.350;19.386;2023-03-25T09:29:25;6.22;;;2.03;;
21458;SDS011;10891;49.350;19.386;2023-03-25T09:31:53;5.43;;;2.17;;
21458;SDS011;10891;49.350;19.386;2023-03-25T09:34:24;7.05;;;1.98;;
21458;SDS011;10891;49.350;19.386;2023-03-25T09:36:51;8.20;;;2.00;;
21458;SDS011;10891;49.350;19.386;2023-03-25T09:39:18;11.93;;;4.25;;
21458;SDS011;10891;49.350;19.386;2023-03-25T09:41:52;9.73;;;3.50;;
21458;SDS011;10891;49.350;19.386;2023-03-25T09:44:36;4.15;;;1.92;;
21458;SDS011;10891;49.350;19.386;2023-03-25T09:47:13;7.13;;;2.38;;
21458;SDS011;10891;49.350;19.386;2023-03-25T09:49:43;15.20;;;5.13;;
21458;SDS011;10891;49.350;19.386;2023-03-25T09:52:18;4.35;;;1.90;;
21458;SDS011;10891;49.350;19.386;2023-03-25T09:54:50;13.23;;;4.28;;
21458;SDS011;10891;49.350;19.386;2023-03-25T09:57:21;7.05;;;2.50;;
21458;SDS011;10891;49.350;19.386;2023-03-25T09:59:53;9.27;;;3.28;;
21458;SDS011;10891;49.350;19.386;2023-03-25T10:02:26;8.60;;;2.80;;
21458;SDS011;10891;49.350;19.386;2023-03-25T10:05:15;5.43;;;1.98;;
21458;SDS011;10891;49.350;19.386;2023-03-25T10:07:53;44.35;;;9.70;;
21458;SDS011;10891;49.350;19.386;2023-03-25T10:10:31;4.07;;;1.83;;
21458;SDS011;10891;49.350;19.386;2023-03-25T10:13:06;3.75;;;1.55;;
21458;SDS011;10891;49.350;19.386;2023-03-25T10:15:42;5.43;;;1.40;;
21458;SDS011;10891;49.350;19.386;2023-03-25T10:18:21;11.27;;;2.85;;
21458;SDS011;10891;49.350;19.386;2023-03-25T10:21:02;7.88;;;1.95;;
21458;SDS011;10891;49.350;19.386;2023-03-25T10:23:37;8.75;;;2.17;;
21458;SDS011;10891;49.350;19.386;2023-03-25T10:26:09;5.50;;;1.77;;
21458;SDS011;10891;49.350;19.386;2023-03-25T10:28:40;8.13;;;2.72;;
21458;SDS011;10891;49.350;19.386;2023-03-25T10:31:15;6.70;;;1.90;;
21458;SDS011;10891;49.350;19.386;2023-03-25T10:33:45;3.58;;;1.50;;
21458;SDS011;10891;49.350;19.386;2023-03-25T10:36:19;3.75;;;1.75;;
21458;SDS011;10891;49.350;19.386;2023-03-25T10:38:53;4.82;;;2.05;;
21458;SDS011;10891;49.350;19.386;2023-03-25T10:41:22;12.68;;;6.57;;
21458;SDS011;10891;49.350;19.386;2023-03-25T10:43:52;4.38;;;1.60;;
21458;SDS011;10891;49.350;19.386;2023-03-25T10:46:23;5.15;;;1.70;;
21458;SDS011;10891;49.350;19.386;2023-03-25T10:48:54;6.00;;;2.05;;
21458;SDS011;10891;49.350;19.386;2023-03-25T10:51:22;6.50;;;3.50;;
21458;SDS011;10891;49.350;19.386;2023-03-25T10:53:52;5.05;;;2.25;;
21458;SDS011;10891;49.350;19.386;2023-03-25T10:56:21;5.18;;;1.85;;
21458;SDS011;10891;49.350;19.386;2023-03-25T10:58:52;16.85;;;5.72;;
21458;SDS011;10891;49.350;19.386;2023-03-25T11:01:21;5.97;;;2.78;;
21458;SDS011;10891;49.350;19.386;2023-03-25T11:03:59;8.60;;;2.50;;
21458;SDS011;10891;49.350;19.386;2023-03-25T11:06:32;5.35;;;2.63;;
21458;SDS011;10891;49.350;19.386;2023-03-25T11:09:14;9.75;;;2.60;;
21458;SDS011;10891;49.350;19.386;2023-03-25T11:11:43;10.55;;;2.50;;
21458;SDS011;10891;49.350;19.386;2023-03-25T11:14:15;8.90;;;2.88;;
21458;SDS011;10891;49.350;19.386;2023-03-25T11:16:47;6.28;;;2.88;;
21458;SDS011;10891;49.350;19.386;2023-03-25T11:19:19;4.47;;;2.25;;
21458;SDS011;10891;49.350;19.386;2023-03-25T11:21:53;10.23;;;4.55;;
21458;SDS011;10891;49.350;19.386;2023-03-25T11:24:26;10.68;;;4.22;;
21458;SDS011;10891;49.350;19.386;2023-03-25T11:26:57;5.43;;;3.15;;
21458;SDS011;10891;49.350;19.386;2023-03-25T11:29:26;6.05;;;3.28;;
21458;SDS011;10891;49.350;19.386;2023-03-25T11:31:56;5.07;;;2.10;;
21458;SDS011;10891;49.350;19.386;2023-03-25T11:34:29;8.38;;;2.53;;
21458;SDS011;10891;49.350;19.386;2023-03-25T11:37:00;6.25;;;2.30;;
21458;SDS011;10891;49.350;19.386;2023-03-25T11:39:34;4.18;;;2.03;;
21458;SDS011;10891;49.350;19.386;2023-03-25T11:42:13;6.80;;;2.20;;
21458;SDS011;10891;49.350;19.386;2023-03-25T11:44:48;7.22;;;2.35;;
21458;SDS011;10891;49.350;19.386;2023-03-25T11:47:17;8.02;;;3.22;;
21458;SDS011;10891;49.350;19.386;2023-03-25T11:49:55;7.68;;;3.15;;
21458;SDS011;10891;49.350;19.386;2023-03-25T11:52:24;8.18;;;3.10;;
21458;SDS011;10891;49.350;19.386;2023-03-25T11:54:53;8.85;;;3.63;;
21458;SDS011;10891;49.350;19.386;2023-03-25T11:57:21;6.32;;;2.70;;
21458;SDS011;10891;49.350;19.386;2023-03-25T11:59:57;5.97;;;2.38;;
21458;SDS011;10891;49.350;19.386;2023-03-25T12:02:35;5.93;;;2.90;;
21458;SDS011;10891;49.350;19.386;2023-03-25T12:05:08;3.22;;;1.55;;
21458;SDS011;10891;49.350;19.386;2023-03-25T12:07:41;8.07;;;2.60;;
21458;SDS011;10891;49.350;19.386;2023-03-25T12:10:15;7.90;;;2.78;;
21458;SDS011;10891;49.350;19.386;2023-03-25T12:12:48;5.75;;;2.40;;
21458;SDS011;10891;49.350;19.386;2023-03-25T12:15:21;5.78;;;2.38;;
21458;SDS011;10891;49.350;19.386;2023-03-25T12:18:00;11.38;;;3.42;;
21458;SDS011;10891;49.350;19.386;2023-03-25T12:20:36;13.18;;;3.50;;
21458;SDS011;10891;49.350;19.386;2023-03-25T12:23:17;5.13;;;1.50;;
21458;SDS011;10891;49.350;19.386;2023-03-25T12:25:52;3.40;;;1.65;;
21458;SDS011;10891;49.350;19.386;2023-03-25T12:28:31;6.00;;;3.67;;
21458;SDS011;10891;49.350;19.386;2023-03-25T12:31:11;3.78;;;3.13;;
21458;SDS011;10891;49.350;19.386;2023-03-25T12:33:50;3.92;;;3.13;;
21458;SDS011;10891;49.350;19.386;2023-03-25T12:36:32;23.67;;;11.07;;
21458;SDS011;10891;49.350;19.386;2023-03-25T12:39:20;32.13;;;18.27;;
21458;SDS011;10891;49.350;19.386;2023-03-25T12:42:00;37.22;;;21.25;;
21458;SDS011;10891;49.350;19.386;2023-03-25T12:44:42;70.97;;;35.63;;
21458;SDS011;10891;49.350;19.386;2023-03-25T12:47:21;19.98;;;12.20;;
21458;SDS011;10891;49.350;19.386;2023-03-25T12:49:53;8.48;;;4.82;;
21458;SDS011;10891;49.350;19.386;2023-03-25T12:52:30;5.53;;;3.33;;
21458;SDS011;10891;49.350;19.386;2023-03-25T12:58:09;7.50;;;4.07;;
21458;SDS011;10891;49.350;19.386;2023-03-25T13:00:58;8.35;;;3.72;;
21458;SDS011;10891;49.350;19.386;2023-03-25T13:03:34;6.45;;;2.90;;
21458;SDS011;10891;49.350;19.386;2023-03-25T13:06:19;7.38;;;3.45;;
21458;SDS011;10891;49.350;19.386;2023-03-25T13:08:56;5.05;;;2.33;;
21458;SDS011;10891;49.350;19.386;2023-03-25T13:11:29;6.57;;;2.45;;
21458;SDS011;10891;49.350;19.386;2023-03-25T13:14:04;14.10;;;7.25;;
21458;SDS011;10891;49.350;19.386;2023-03-25T13:16:34;14.27;;;8.13;;
21458;SDS011;10891;49.350;19.386;2023-03-25T13:19:03;7.57;;;2.75;;
21458;SDS011;10891;49.350;19.386;2023-03-25T13:21:35;13.90;;;4.00;;
21458;SDS011;10891;49.350;19.386;2023-03-25T13:24:06;4.70;;;1.92;;
21458;SDS011;10891;49.350;19.386;2023-03-25T13:26:40;7.20;;;1.77;;
21458;SDS011;10891;49.350;19.386;2023-03-25T13:29:10;13.60;;;6.97;;
21458;SDS011;10891;49.350;19.386;2023-03-25T13:31:48;35.47;;;19.15;;
21458;SDS011;10891;49.350;19.386;2023-03-25T13:34:18;27.90;;;15.30;;
21458;SDS011;10891;49.350;19.386;2023-03-25T13:36:55;14.50;;;7.53;;
21458;SDS011;10891;49.350;19.386;2023-03-25T13:39:31;22.75;;;9.15;;
21458;SDS011;10891;49.350;19.386;2023-03-25T13:42:11;28.55;;;11.75;;
21458;SDS011;10891;49.350;19.386;2023-03-25T13:44:43;25.63;;;10.75;;
21458;SDS011;10891;49.350;19.386;2023-03-25T13:47:16;10.02;;;5.10;;
21458;SDS011;10891;49.350;19.386;2023-03-25T13:49:47;11.73;;;6.53;;
21458;SDS011;10891;49.350;19.386;2023-03-25T13:52:17;11.60;;;6.95;;
21458;SDS011;10891;49.350;19.386;2023-03-25T13:54:45;8.00;;;5.05;;
21458;SDS011;10891;49.350;19.386;2023-03-25T13:57:24;12.27;;;8.35;;
21458;SDS011;10891;49.350;19.386;2023-03-25T14:00:23;12.23;;;9.95;;
21458;SDS011;10891;49.350;19.386;2023-03-25T14:12:19;71.22;;;37.78;;
21458;SDS011;10891;49.350;19.386;2023-03-25T14:14:52;13.98;;;9.30;;
21458;SDS011;10891;49.350;19.386;2023-03-25T14:17:25;20.20;;;11.02;;
21458;SDS011;10891;49.350;19.386;2023-03-25T14:19:55;23.25;;;11.68;;
21458;SDS011;10891;49.350;19.386;2023-03-25T14:22:25;19.50;;;10.18;;
21458;SDS011;10891;49.350;19.386;2023-03-25T14:24:56;8.70;;;4.55;;
21458;SDS011;10891;49.350;19.386;2023-03-25T14:27:25;10.43;;;4.65;;
21458;SDS011;10891;49.350;19.386;2023-03-25T14:29:57;5.32;;;2.45;;
21458;SDS011;10891;49.350;19.386;2023-03-25T14:32:32;30.10;;;13.13;;
21458;SDS011;10891;49.350;19.386;2023-03-25T14:41:15;51.05;;;26.33;;
21458;SDS011;10891;49.350;19.386;2023-03-25T14:43:42;20.48;;;16.65;;
21458;SDS011;10891;49.350;19.386;2023-03-25T14:46:16;10.05;;;5.70;;
21458;SDS011;10891;49.350;19.386;2023-03-25T14:48:48;8.35;;;4.63;;
21458;SDS011;10891;49.350;19.386;2023-03-25T14:51:21;6.97;;;3.45;;
21458;SDS011;10891;49.350;19.386;2023-03-25T14:54:15;6.50;;;3.30;;
21458;SDS011;10891;49.350;19.386;2023-03-25T14:56:52;22.65;;;8.30;;
21458;SDS011;10891;49.350;19.386;2023-03-25T14:59:24;25.98;;;14.13;;
21458;SDS011;10891;49.350;19.386;2023-03-25T15:02:00;20.20;;;13.18;;
21458;SDS011;10891;49.350;19.386;2023-03-25T15:04:31;16.75;;;8.13;;
21458;SDS011;10891;49.350;19.386;2023-03-25T15:07:02;16.88;;;8.43;;
21458;SDS011;10891;49.350;19.386;2023-03-25T15:09:41;19.83;;;10.65;;
21458;SDS011;10891;49.350;19.386;2023-03-25T15:12:11;17.10;;;7.82;;